sensor_id;sensor_type;location;lat;lon;timestamp;temperature;humidity
3262;DHT22;1643;47.746;9.000;2023-12-28T00:00:42;3.10;99.90
3262;DHT22;1643;47.746;9.000;2023-12-28T00:03:07;3.20;99.90
3262;DHT22;1643;47.746;9.000;2023-12-28T00:05:33;3.20;99.90
3262;DHT22;1643;47.746;9.000;2023-12-28T00:07:59;3.20;99.90
3262;DHT22;1643;47.746;9.000;2023-12-28T00:10:25;3.20;99.90
3262;DHT22;1643;47.746;9.000;2023-12-28T00:12:51;3.20;99.90
3262;DHT22;1643;47.746;9.000;2023-12-28T00:15:17;3.20;99.90
3262;DHT22;1643;47.746;9.000;2023-12-28T00:17:43;3.30;99.90
3262;DHT22;1643;47.746;9.000;2023-12-28T00:20:09;3.30;99.90
3262;DHT22;1643;47.746;9.000;2023-12-28T00:22:35;3.20;99.90
3262;DHT22;1643;47.746;9.000;2023-12-28T00:25:06;3.10;99.90
3262;DHT22;1643;47.746;9.000;2023-12-28T00:27:32;3.00;99.90
3262;DHT22;1643;47.746;9.000;2023-12-28T00:29:59;3.10;99.90
3262;DHT22;1643;47.746;9.000;2023-12-28T00:32:25;3.10;99.90
3262;DHT22;1643;47.746;9.000;2023-12-28T00:34:51;3.10;99.90
3262;DHT22;1643;47.746;9.000;2023-12-28T00:37:17;3.10;99.90
3262;DHT22;1643;47.746;9.000;2023-12-28T00:39:42;3.10;99.90
3262;DHT22;1643;47.746;9.000;2023-12-28T00:42:08;3.00;99.90
3262;DHT22;1643;47.746;9.000;2023-12-28T00:44:34;3.00;99.90
3262;DHT22;1643;47.746;9.000;2023-12-28T00:46:59;3.00;99.90
3262;DHT22;1643;47.746;9.000;2023-12-28T00:49:25;3.00;99.90
3262;DHT22;1643;47.746;9.000;2023-12-28T00:51:50;2.90;99.90
3262;DHT22;1643;47.746;9.000;2023-12-28T00:54:16;2.90;99.90
3262;DHT22;1643;47.746;9.000;2023-12-28T00:56:43;3.00;99.90
3262;DHT22;1643;47.746;9.000;2023-12-28T00:59:08;3.00;99.90
3262;DHT22;1643;47.746;9.000;2023-12-28T01:01:34;3.00;99.90
3262;DHT22;1643;47.746;9.000;2023-12-28T01:04:00;3.10;99.90
3262;DHT22;1643;47.746;9.000;2023-12-28T01:06:25;3.10;99.90
3262;DHT22;1643;47.746;9.000;2023-12-28T01:08:54;3.10;99.90
3262;DHT22;1643;47.746;9.000;2023-12-28T01:11:20;3.10;99.90
3262;DHT22;1643;47.746;9.000;2023-12-28T01:13:45;3.10;99.90
3262;DHT22;1643;47.746;9.000;2023-12-28T01:16:14;3.10;99.90
3262;DHT22;1643;47.746;9.000;2023-12-28T01:18:40;3.00;99.90
3262;DHT22;1643;47.746;9.000;2023-12-28T01:21:06;3.00;99.90
3262;DHT22;1643;47.746;9.000;2023-12-28T01:23:32;3.00;99.90
3262;DHT22;1643;47.746;9.000;2023-12-28T01:25:59;3.00;99.90
3262;DHT22;1643;47.746;9.000;2023-12-28T01:28:24;3.00;99.90
3262;DHT22;1643;47.746;9.000;2023-12-28T01:30:50;3.00;99.90
3262;DHT22;1643;47.746;9.000;2023-12-28T01:33:16;3.00;99.90
3262;DHT22;1643;47.746;9.000;2023-12-28T01:35:42;3.00;99.90
3262;DHT22;1643;47.746;9.000;2023-12-28T01:38:07;3.00;99.90
3262;DHT22;1643;47.746;9.000;2023-12-28T01:40:33;3.00;99.90
3262;DHT22;1643;47.746;9.000;2023-12-28T01:42:59;3.10;99.90
3262;DHT22;1643;47.746;9.000;2023-12-28T01:45:24;3.00;99.90
3262;DHT22;1643;47.746;9.000;2023-12-28T01:47:50;3.00;99.90
3262;DHT22;1643;47.746;9.000;2023-12-28T01:50:18;3.00;99.90
3262;DHT22;1643;47.746;9.000;2023-12-28T01:52:44;3.00;99.90
3262;DHT22;1643;47.746;9.000;2023-12-28T01:55:11;3.00;99.90
3262;DHT22;1643;47.746;9.000;2023-12-28T01:57:37;3.00;99.90
3262;DHT22;1643;47.746;9.000;2023-12-28T02:00:04;3.00;99.90
3262;DHT22;1643;47.746;9.000;2023-12-28T02:02:31;3.00;99.90
3262;DHT22;1643;47.746;9.000;2023-12-28T02:04:57;3.00;99.90
3262;DHT22;1643;47.746;9.000;2023-12-28T02:07:24;3.00;99.90
3262;DHT22;1643;47.746;9.000;2023-12-28T02:09:50;3.00;99.90
3262;DHT22;1643;47.746;9.000;2023-12-28T02:12:16;2.90;99.90
3262;DHT22;1643;47.746;9.000;2023-12-28T02:14:42;3.00;99.90
3262;DHT22;1643;47.746;9.000;2023-12-28T02:17:15;3.00;99.90
3262;DHT22;1643;47.746;9.000;2023-12-28T02:19:51;2.90;99.90
3262;DHT22;1643;47.746;9.000;2023-12-28T02:22:18;3.00;99.90
3262;DHT22;1643;47.746;9.000;2023-12-28T02:25:13;3.00;99.90
3262;DHT22;1643;47.746;9.000;2023-12-28T02:27:44;3.00;99.90
3262;DHT22;1643;47.746;9.000;2023-12-28T02:30:11;3.00;99.90
3262;DHT22;1643;47.746;9.000;2023-12-28T02:35:38;3.00;99.90
3262;DHT22;1643;47.746;9.000;2023-12-28T02:38:13;3.10;99.90
3262;DHT22;1643;47.746;9.000;2023-12-28T02:40:41;3.10;99.90
3262;DHT22;1643;47.746;9.000;2023-12-28T02:43:09;3.10;99.90
3262;DHT22;1643;47.746;9.000;2023-12-28T02:45:36;3.10;99.90
3262;DHT22;1643;47.746;9.000;2023-12-28T02:48:03;3.10;99.90
3262;DHT22;1643;47.746;9.000;2023-12-28T02:50:29;3.10;99.90
3262;DHT22;1643;47.746;9.000;2023-12-28T02:52:58;3.10;99.90
3262;DHT22;1643;47.746;9.000;2023-12-28T02:55:24;3.10;99.90
3262;DHT22;1643;47.746;9.000;2023-12-28T02:57:51;3.10;99.90
3262;DHT22;1643;47.746;9.000;2023-12-28T03:00:17;3.10;99.90
3262;DHT22;1643;47.746;9.000;2023-12-28T03:02:43;3.00;99.90
3262;DHT22;1643;47.746;9.000;2023-12-28T03:05:09;3.00;99.90
3262;DHT22;1643;47.746;9.000;2023-12-28T03:07:35;3.00;99.90
3262;DHT22;1643;47.746;9.000;2023-12-28T03:10:02;3.00;99.90
3262;DHT22;1643;47.746;9.000;2023-12-28T03:12:29;3.10;99.90
3262;DHT22;1643;47.746;9.000;2023-12-28T03:14:55;3.10;99.90
3262;DHT22;1643;47.746;9.000;2023-12-28T03:17:21;3.10;99.90
3262;DHT22;1643;47.746;9.000;2023-12-28T03:19:47;3.10;99.90
3262;DHT22;1643;47.746;9.000;2023-12-28T03:22:12;3.10;99.90
3262;DHT22;1643;47.746;9.000;2023-12-28T03:24:38;3.00;99.90
3262;DHT22;1643;47.746;9.000;2023-12-28T03:27:07;3.00;99.90
3262;DHT22;1643;47.746;9.000;2023-12-28T03:29:33;2.90;99.90
3262;DHT22;1643;47.746;9.000;2023-12-28T03:31:59;2.90;99.90
3262;DHT22;1643;47.746;9.000;2023-12-28T03:34:25;2.90;99.90
3262;DHT22;1643;47.746;9.000;2023-12-28T03:36:52;2.90;99.90
3262;DHT22;1643;47.746;9.000;2023-12-28T03:39:18;2.80;99.90
3262;DHT22;1643;47.746;9.000;2023-12-28T03:41:44;2.80;99.90
3262;DHT22;1643;47.746;9.000;2023-12-28T03:44:09;2.80;99.90
3262;DHT22;1643;47.746;9.000;2023-12-28T03:46:35;2.80;99.90
3262;DHT22;1643;47.746;9.000;2023-12-28T03:49:01;2.80;99.90
3262;DHT22;1643;47.746;9.000;2023-12-28T03:51:27;2.70;99.90
3262;DHT22;1643;47.746;9.000;2023-12-28T03:53:52;2.70;99.90
3262;DHT22;1643;47.746;9.000;2023-12-28T03:56:22;2.70;99.90
3262;DHT22;1643;47.746;9.000;2023-12-28T03:58:48;2.70;99.90
3262;DHT22;1643;47.746;9.000;2023-12-28T04:01:14;2.70;99.90
3262;DHT22;1643;47.746;9.000;2023-12-28T04:03:39;2.70;99.90
3262;DHT22;1643;47.746;9.000;2023-12-28T04:06:05;2.70;99.90
3262;DHT22;1643;47.746;9.000;2023-12-28T04:08:31;2.70;99.90
3262;DHT22;1643;47.746;9.000;2023-12-28T04:10:57;2.70;99.90
3262;DHT22;1643;47.746;9.000;2023-12-28T04:13:23;2.80;99.90
3262;DHT22;1643;47.746;9.000;2023-12-28T04:15:48;2.80;99.90
3262;DHT22;1643;47.746;9.000;2023-12-28T04:18:14;2.80;99.90
3262;DHT22;1643;47.746;9.000;2023-12-28T04:20:42;2.80;99.90
3262;DHT22;1643;47.746;9.000;2023-12-28T04:23:08;2.80;99.90
3262;DHT22;1643;47.746;9.000;2023-12-28T04:25:33;2.80;99.90
3262;DHT22;1643;47.746;9.000;2023-12-28T04:27:59;2.80;99.90
3262;DHT22;1643;47.746;9.000;2023-12-28T04:30:25;2.80;99.90
3262;DHT22;1643;47.746;9.000;2023-12-28T04:32:50;2.70;99.90
3262;DHT22;1643;47.746;9.000;2023-12-28T04:35:16;2.70;99.90
3262;DHT22;1643;47.746;9.000;2023-12-28T04:37:41;2.60;99.90
3262;DHT22;1643;47.746;9.000;2023-12-28T04:40:07;2.60;99.90
3262;DHT22;1643;47.746;9.000;2023-12-28T04:42:33;2.60;99.90
3262;DHT22;1643;47.746;9.000;2023-12-28T04:44:59;2.60;99.90
3262;DHT22;1643;47.746;9.000;2023-12-28T04:47:24;2.60;99.90
3262;DHT22;1643;47.746;9.000;2023-12-28T04:49:50;2.60;99.90
3262;DHT22;1643;47.746;9.000;2023-12-28T04:52:15;2.60;99.90
3262;DHT22;1643;47.746;9.000;2023-12-28T04:54:41;2.60;99.90
3262;DHT22;1643;47.746;9.000;2023-12-28T04:57:07;2.60;99.90
3262;DHT22;1643;47.746;9.000;2023-12-28T04:59:41;2.60;99.90
3262;DHT22;1643;47.746;9.000;2023-12-28T05:02:07;2.60;99.90
3262;DHT22;1643;47.746;9.000;2023-12-28T05:04:33;2.60;99.90
3262;DHT22;1643;47.746;9.000;2023-12-28T05:07:02;2.60;99.90
3262;DHT22;1643;47.746;9.000;2023-12-28T05:09:27;2.60;99.90
3262;DHT22;1643;47.746;9.000;2023-12-28T05:11:53;2.70;99.90
3262;DHT22;1643;47.746;9.000;2023-12-28T05:14:18;2.70;99.90
3262;DHT22;1643;47.746;9.000;2023-12-28T05:16:44;2.70;99.90
3262;DHT22;1643;47.746;9.000;2023-12-28T05:19:10;2.60;99.90
3262;DHT22;1643;47.746;9.000;2023-12-28T05:21:35;2.60;99.90
3262;DHT22;1643;47.746;9.000;2023-12-28T05:24:01;2.60;99.90
3262;DHT22;1643;47.746;9.000;2023-12-28T05:26:26;2.60;99.90
3262;DHT22;1643;47.746;9.000;2023-12-28T05:28:52;2.60;99.90
3262;DHT22;1643;47.746;9.000;2023-12-28T05:31:18;2.60;99.90
3262;DHT22;1643;47.746;9.000;2023-12-28T05:33:44;2.60;99.90
3262;DHT22;1643;47.746;9.000;2023-12-28T05:36:09;2.50;99.90
3262;DHT22;1643;47.746;9.000;2023-12-28T05:38:35;2.50;99.90
3262;DHT22;1643;47.746;9.000;2023-12-28T05:41:00;2.60;99.90
3262;DHT22;1643;47.746;9.000;2023-12-28T05:43:26;2.50;99.90
3262;DHT22;1643;47.746;9.000;2023-12-28T05:45:52;2.50;99.90
3262;DHT22;1643;47.746;9.000;2023-12-28T05:48:17;2.50;99.90
3262;DHT22;1643;47.746;9.000;2023-12-28T05:50:43;2.50;99.90
3262;DHT22;1643;47.746;9.000;2023-12-28T05:53:09;2.50;99.90
3262;DHT22;1643;47.746;9.000;2023-12-28T05:55:42;2.40;99.90
3262;DHT22;1643;47.746;9.000;2023-12-28T05:58:09;2.40;99.90
3262;DHT22;1643;47.746;9.000;2023-12-28T06:00:34;2.40;99.90
3262;DHT22;1643;47.746;9.000;2023-12-28T06:03:02;2.50;99.90
3262;DHT22;1643;47.746;9.000;2023-12-28T06:05:28;2.50;99.90
3262;DHT22;1643;47.746;9.000;2023-12-28T06:07:53;2.40;99.90
3262;DHT22;1643;47.746;9.000;2023-12-28T06:10:19;2.40;99.90
3262;DHT22;1643;47.746;9.000;2023-12-28T06:12:45;2.40;99.90
3262;DHT22;1643;47.746;9.000;2023-12-28T06:15:11;2.40;99.90
3262;DHT22;1643;47.746;9.000;2023-12-28T06:17:37;2.30;99.90
3262;DHT22;1643;47.746;9.000;2023-12-28T06:20:03;2.30;99.90
3262;DHT22;1643;47.746;9.000;2023-12-28T06:22:29;2.30;99.90
3262;DHT22;1643;47.746;9.000;2023-12-28T06:24:55;2.30;99.90
3262;DHT22;1643;47.746;9.000;2023-12-28T06:27:21;2.30;99.90
3262;DHT22;1643;47.746;9.000;2023-12-28T06:29:47;2.30;99.90
3262;DHT22;1643;47.746;9.000;2023-12-28T06:32:12;2.30;99.90
3262;DHT22;1643;47.746;9.000;2023-12-28T06:34:39;2.30;99.90
3262;DHT22;1643;47.746;9.000;2023-12-28T06:37:05;2.30;99.90
3262;DHT22;1643;47.746;9.000;2023-12-28T06:39:30;2.30;99.90
3262;DHT22;1643;47.746;9.000;2023-12-28T06:41:56;2.30;99.90
3262;DHT22;1643;47.746;9.000;2023-12-28T06:44:21;2.30;99.90
3262;DHT22;1643;47.746;9.000;2023-12-28T06:46:47;2.30;99.90
3262;DHT22;1643;47.746;9.000;2023-12-28T06:49:13;2.30;99.90
3262;DHT22;1643;47.746;9.000;2023-12-28T06:51:38;2.30;99.90
3262;DHT22;1643;47.746;9.000;2023-12-28T06:54:04;2.20;99.90
3262;DHT22;1643;47.746;9.000;2023-12-28T06:56:29;2.30;99.90
3262;DHT22;1643;47.746;9.000;2023-12-28T06:58:55;2.30;99.90
3262;DHT22;1643;47.746;9.000;2023-12-28T07:01:21;2.30;99.90
3262;DHT22;1643;47.746;9.000;2023-12-28T07:03:47;2.20;99.90
3262;DHT22;1643;47.746;9.000;2023-12-28T07:06:14;2.20;99.90
3262;DHT22;1643;47.746;9.000;2023-12-28T07:08:39;2.30;99.90
3262;DHT22;1643;47.746;9.000;2023-12-28T07:11:05;2.30;99.90
3262;DHT22;1643;47.746;9.000;2023-12-28T07:13:31;2.30;99.90
3262;DHT22;1643;47.746;9.000;2023-12-28T07:15:56;2.30;99.90
3262;DHT22;1643;47.746;9.000;2023-12-28T07:18:22;2.30;99.90
3262;DHT22;1643;47.746;9.000;2023-12-28T07:20:48;2.30;99.90
3262;DHT22;1643;47.746;9.000;2023-12-28T07:23:14;2.30;99.90
3262;DHT22;1643;47.746;9.000;2023-12-28T07:25:40;2.30;99.90
3262;DHT22;1643;47.746;9.000;2023-12-28T07:28:05;2.30;99.90
3262;DHT22;1643;47.746;9.000;2023-12-28T07:30:31;2.40;99.90
3262;DHT22;1643;47.746;9.000;2023-12-28T07:32:57;2.80;99.90
3262;DHT22;1643;47.746;9.000;2023-12-28T07:35:23;3.00;99.90
3262;DHT22;1643;47.746;9.000;2023-12-28T07:37:48;3.10;99.90
3262;DHT22;1643;47.746;9.000;2023-12-28T07:40:15;3.00;99.90
3262;DHT22;1643;47.746;9.000;2023-12-28T07:42:41;2.90;99.90
3262;DHT22;1643;47.746;9.000;2023-12-28T07:45:07;2.80;99.90
3262;DHT22;1643;47.746;9.000;2023-12-28T07:47:32;2.70;99.90
3262;DHT22;1643;47.746;9.000;2023-12-28T07:49:59;2.70;99.90
3262;DHT22;1643;47.746;9.000;2023-12-28T07:52:26;2.70;99.90
3262;DHT22;1643;47.746;9.000;2023-12-28T07:54:51;2.70;99.90
3262;DHT22;1643;47.746;9.000;2023-12-28T07:57:17;2.70;99.90
3262;DHT22;1643;47.746;9.000;2023-12-28T07:59:43;2.80;99.90
3262;DHT22;1643;47.746;9.000;2023-12-28T08:02:09;2.80;99.90
3262;DHT22;1643;47.746;9.000;2023-12-28T08:04:35;2.80;99.90
3262;DHT22;1643;47.746;9.000;2023-12-28T08:07:00;2.70;99.90
3262;DHT22;1643;47.746;9.000;2023-12-28T08:09:26;2.80;99.90
3262;DHT22;1643;47.746;9.000;2023-12-28T08:11:52;2.80;99.90
3262;DHT22;1643;47.746;9.000;2023-12-28T08:14:18;2.90;99.90
3262;DHT22;1643;47.746;9.000;2023-12-28T08:16:44;2.90;99.90
3262;DHT22;1643;47.746;9.000;2023-12-28T08:19:10;2.90;99.90
3262;DHT22;1643;47.746;9.000;2023-12-28T08:21:36;3.00;99.90
3262;DHT22;1643;47.746;9.000;2023-12-28T08:24:02;3.00;99.90
3262;DHT22;1643;47.746;9.000;2023-12-28T08:26:28;2.90;99.90
3262;DHT22;1643;47.746;9.000;2023-12-28T08:28:53;3.10;99.90
3262;DHT22;1643;47.746;9.000;2023-12-28T08:31:19;3.10;99.90
3262;DHT22;1643;47.746;9.000;2023-12-28T08:33:45;3.10;99.90
3262;DHT22;1643;47.746;9.000;2023-12-28T08:36:11;3.20;99.90
3262;DHT22;1643;47.746;9.000;2023-12-28T08:38:37;3.20;99.90
3262;DHT22;1643;47.746;9.000;2023-12-28T08:41:03;3.10;99.90
3262;DHT22;1643;47.746;9.000;2023-12-28T08:43:35;3.20;99.90
3262;DHT22;1643;47.746;9.000;2023-12-28T08:46:01;3.20;99.90
3262;DHT22;1643;47.746;9.000;2023-12-28T08:48:26;3.20;99.90
3262;DHT22;1643;47.746;9.000;2023-12-28T08:50:52;3.30;99.90
3262;DHT22;1643;47.746;9.000;2023-12-28T08:53:18;3.30;99.90
3262;DHT22;1643;47.746;9.000;2023-12-28T08:55:43;3.30;99.90
3262;DHT22;1643;47.746;9.000;2023-12-28T08:58:09;3.30;99.90
3262;DHT22;1643;47.746;9.000;2023-12-28T09:00:34;3.40;99.90
3262;DHT22;1643;47.746;9.000;2023-12-28T09:03:00;3.30;99.90
3262;DHT22;1643;47.746;9.000;2023-12-28T09:05:26;3.30;99.90
3262;DHT22;1643;47.746;9.000;2023-12-28T09:07:51;3.30;99.90
3262;DHT22;1643;47.746;9.000;2023-12-28T09:10:17;3.30;99.90
3262;DHT22;1643;47.746;9.000;2023-12-28T09:12:42;3.40;99.90
3262;DHT22;1643;47.746;9.000;2023-12-28T09:15:08;3.50;99.90
3262;DHT22;1643;47.746;9.000;2023-12-28T09:17:34;3.50;99.90
3262;DHT22;1643;47.746;9.000;2023-12-28T09:20:00;3.50;99.90
3262;DHT22;1643;47.746;9.000;2023-12-28T09:22:27;3.50;99.90
3262;DHT22;1643;47.746;9.000;2023-12-28T09:24:53;3.60;99.90
3262;DHT22;1643;47.746;9.000;2023-12-28T09:27:18;3.60;99.90
3262;DHT22;1643;47.746;9.000;2023-12-28T09:29:44;3.50;99.90
3262;DHT22;1643;47.746;9.000;2023-12-28T09:32:10;3.60;99.90
3262;DHT22;1643;47.746;9.000;2023-12-28T09:34:35;3.60;99.90
3262;DHT22;1643;47.746;9.000;2023-12-28T09:37:01;3.60;99.90
3262;DHT22;1643;47.746;9.000;2023-12-28T09:39:27;3.60;99.90
3262;DHT22;1643;47.746;9.000;2023-12-28T09:42:00;3.60;99.90
3262;DHT22;1643;47.746;9.000;2023-12-28T09:44:29;3.60;99.90
3262;DHT22;1643;47.746;9.000;2023-12-28T09:46:56;4.60;99.90
3262;DHT22;1643;47.746;9.000;2023-12-28T09:49:23;3.50;99.90
3262;DHT22;1643;47.746;9.000;2023-12-28T09:51:49;3.50;99.90
3262;DHT22;1643;47.746;9.000;2023-12-28T09:54:15;3.50;99.90
3262;DHT22;1643;47.746;9.000;2023-12-28T09:56:41;3.40;99.90
3262;DHT22;1643;47.746;9.000;2023-12-28T09:59:07;3.40;99.90
3262;DHT22;1643;47.746;9.000;2023-12-28T10:01:35;3.30;99.90
3262;DHT22;1643;47.746;9.000;2023-12-28T10:04:01;3.40;99.90
3262;DHT22;1643;47.746;9.000;2023-12-28T10:06:30;3.50;99.90
3262;DHT22;1643;47.746;9.000;2023-12-28T10:08:56;3.60;99.90
3262;DHT22;1643;47.746;9.000;2023-12-28T10:11:21;3.60;99.90
3262;DHT22;1643;47.746;9.000;2023-12-28T10:13:49;3.60;99.90
3262;DHT22;1643;47.746;9.000;2023-12-28T10:16:15;3.60;99.90
3262;DHT22;1643;47.746;9.000;2023-12-28T10:18:44;3.60;99.90
3262;DHT22;1643;47.746;9.000;2023-12-28T10:21:11;3.70;99.90
3262;DHT22;1643;47.746;9.000;2023-12-28T10:23:37;3.70;99.90
3262;DHT22;1643;47.746;9.000;2023-12-28T10:26:04;3.80;99.90
3262;DHT22;1643;47.746;9.000;2023-12-28T10:28:32;3.80;99.90
3262;DHT22;1643;47.746;9.000;2023-12-28T10:30:58;3.90;99.90
3262;DHT22;1643;47.746;9.000;2023-12-28T10:33:24;3.90;99.90
3262;DHT22;1643;47.746;9.000;2023-12-28T10:35:51;3.90;99.90
3262;DHT22;1643;47.746;9.000;2023-12-28T10:38:17;4.00;99.90
3262;DHT22;1643;47.746;9.000;2023-12-28T10:40:45;4.00;99.90
3262;DHT22;1643;47.746;9.000;2023-12-28T10:43:12;4.00;99.90
3262;DHT22;1643;47.746;9.000;2023-12-28T10:45:39;4.00;99.90
3262;DHT22;1643;47.746;9.000;2023-12-28T10:48:07;4.10;99.90
3262;DHT22;1643;47.746;9.000;2023-12-28T10:50:47;4.10;99.90
3262;DHT22;1643;47.746;9.000;2023-12-28T10:53:32;4.10;99.90
3262;DHT22;1643;47.746;9.000;2023-12-28T10:56:36;4.20;99.90
3262;DHT22;1643;47.746;9.000;2023-12-28T11:01:51;4.20;99.90
3262;DHT22;1643;47.746;9.000;2023-12-28T11:06:46;4.30;99.90
3262;DHT22;1643;47.746;9.000;2023-12-28T11:09:13;4.30;99.90
3262;DHT22;1643;47.746;9.000;2023-12-28T11:11:43;4.40;99.90
3262;DHT22;1643;47.746;9.000;2023-12-28T11:14:09;4.40;99.90
3262;DHT22;1643;47.746;9.000;2023-12-28T11:16:35;4.40;99.90
3262;DHT22;1643;47.746;9.000;2023-12-28T11:59:20;4.60;99.90
3262;DHT22;1643;47.746;9.000;2023-12-28T12:01:52;4.60;99.90
3262;DHT22;1643;47.746;9.000;2023-12-28T12:04:18;4.70;99.90
3262;DHT22;1643;47.746;9.000;2023-12-28T12:06:45;4.80;99.90
3262;DHT22;1643;47.746;9.000;2023-12-28T12:09:14;4.80;99.90
3262;DHT22;1643;47.746;9.000;2023-12-28T12:11:40;4.80;99.90
3262;DHT22;1643;47.746;9.000;2023-12-28T12:14:09;4.80;99.90
3262;DHT22;1643;47.746;9.000;2023-12-28T12:16:38;4.80;99.90
3262;DHT22;1643;47.746;9.000;2023-12-28T12:19:05;4.80;99.90
3262;DHT22;1643;47.746;9.000;2023-12-28T12:21:33;4.80;99.90
3262;DHT22;1643;47.746;9.000;2023-12-28T12:23:59;4.80;99.90
3262;DHT22;1643;47.746;9.000;2023-12-28T12:26:26;4.80;99.90
3262;DHT22;1643;47.746;9.000;2023-12-28T12:28:52;4.80;99.90
3262;DHT22;1643;47.746;9.000;2023-12-28T12:31:18;4.90;99.90
3262;DHT22;1643;47.746;9.000;2023-12-28T12:33:45;4.90;99.90
3262;DHT22;1643;47.746;9.000;2023-12-28T12:36:10;4.90;99.90
3262;DHT22;1643;47.746;9.000;2023-12-28T12:38:36;5.00;99.90
3262;DHT22;1643;47.746;9.000;2023-12-28T12:41:02;5.00;99.90
3262;DHT22;1643;47.746;9.000;2023-12-28T12:43:28;5.00;99.90
3262;DHT22;1643;47.746;9.000;2023-12-28T12:45:54;5.00;99.90
3262;DHT22;1643;47.746;9.000;2023-12-28T12:48:20;5.00;99.90
3262;DHT22;1643;47.746;9.000;2023-12-28T12:50:45;5.10;99.90
3262;DHT22;1643;47.746;9.000;2023-12-28T12:53:11;5.10;99.90
3262;DHT22;1643;47.746;9.000;2023-12-28T12:55:37;5.10;99.90
3262;DHT22;1643;47.746;9.000;2023-12-28T12:58:09;5.10;99.90
3262;DHT22;1643;47.746;9.000;2023-12-28T13:00:35;5.10;99.90
3262;DHT22;1643;47.746;9.000;2023-12-28T13:03:01;5.10;99.90
3262;DHT22;1643;47.746;9.000;2023-12-28T13:05:27;5.10;99.90
3262;DHT22;1643;47.746;9.000;2023-12-28T13:07:54;5.20;99.90
3262;DHT22;1643;47.746;9.000;2023-12-28T13:10:20;5.20;99.90
3262;DHT22;1643;47.746;9.000;2023-12-28T13:12:46;5.20;99.90
3262;DHT22;1643;47.746;9.000;2023-12-28T13:15:12;5.20;99.90
3262;DHT22;1643;47.746;9.000;2023-12-28T13:17:38;5.10;99.90
3262;DHT22;1643;47.746;9.000;2023-12-28T13:20:04;5.10;99.90
3262;DHT22;1643;47.746;9.000;2023-12-28T13:22:33;5.10;99.90
3262;DHT22;1643;47.746;9.000;2023-12-28T13:24:59;5.10;99.90
3262;DHT22;1643;47.746;9.000;2023-12-28T13:27:26;5.20;99.90
3262;DHT22;1643;47.746;9.000;2023-12-28T13:29:52;5.20;99.90
3262;DHT22;1643;47.746;9.000;2023-12-28T13:32:18;5.20;99.90
3262;DHT22;1643;47.746;9.000;2023-12-28T13:34:43;5.20;99.90
3262;DHT22;1643;47.746;9.000;2023-12-28T13:37:09;5.20;99.90
3262;DHT22;1643;47.746;9.000;2023-12-28T13:39:35;5.30;99.90
3262;DHT22;1643;47.746;9.000;2023-12-28T13:42:06;5.30;99.90
3262;DHT22;1643;47.746;9.000;2023-12-28T13:44:33;5.30;99.90
3262;DHT22;1643;47.746;9.000;2023-12-28T13:46:59;5.30;99.90
3262;DHT22;1643;47.746;9.000;2023-12-28T13:49:24;5.30;99.90
3262;DHT22;1643;47.746;9.000;2023-12-28T13:51:51;5.40;99.90
3262;DHT22;1643;47.746;9.000;2023-12-28T13:54:17;5.30;99.90
3262;DHT22;1643;47.746;9.000;2023-12-28T13:56:45;5.30;99.90
3262;DHT22;1643;47.746;9.000;2023-12-28T13:59:11;5.30;99.90
3262;DHT22;1643;47.746;9.000;2023-12-28T14:01:37;5.40;99.90
3262;DHT22;1643;47.746;9.000;2023-12-28T14:04:03;5.40;99.90
3262;DHT22;1643;47.746;9.000;2023-12-28T14:06:29;5.40;99.90
3262;DHT22;1643;47.746;9.000;2023-12-28T14:08:55;5.40;99.90
3262;DHT22;1643;47.746;9.000;2023-12-28T14:11:22;5.50;99.90
3262;DHT22;1643;47.746;9.000;2023-12-28T14:13:47;5.50;99.90
3262;DHT22;1643;47.746;9.000;2023-12-28T14:16:13;5.50;99.90
3262;DHT22;1643;47.746;9.000;2023-12-28T14:18:38;5.50;99.90
3262;DHT22;1643;47.746;9.000;2023-12-28T14:21:08;5.60;99.90
3262;DHT22;1643;47.746;9.000;2023-12-28T14:23:35;5.60;99.90
3262;DHT22;1643;47.746;9.000;2023-12-28T14:26:04;5.60;99.90
3262;DHT22;1643;47.746;9.000;2023-12-28T14:28:30;5.60;99.90
3262;DHT22;1643;47.746;9.000;2023-12-28T14:30:59;5.60;99.90
3262;DHT22;1643;47.746;9.000;2023-12-28T14:33:25;5.60;99.90
3262;DHT22;1643;47.746;9.000;2023-12-28T14:35:51;5.70;99.90
3262;DHT22;1643;47.746;9.000;2023-12-28T14:38:16;5.70;99.90
3262;DHT22;1643;47.746;9.000;2023-12-28T14:40:42;5.70;99.90
3262;DHT22;1643;47.746;9.000;2023-12-28T14:43:08;5.70;99.90
3262;DHT22;1643;47.746;9.000;2023-12-28T14:45:33;5.70;99.90
3262;DHT22;1643;47.746;9.000;2023-12-28T14:47:59;5.70;99.90
3262;DHT22;1643;47.746;9.000;2023-12-28T14:50:24;5.70;99.90
3262;DHT22;1643;47.746;9.000;2023-12-28T14:52:50;5.70;99.90
3262;DHT22;1643;47.746;9.000;2023-12-28T14:55:16;5.70;99.90
3262;DHT22;1643;47.746;9.000;2023-12-28T14:57:41;5.70;99.90
3262;DHT22;1643;47.746;9.000;2023-12-28T15:00:07;5.70;99.90
3262;DHT22;1643;47.746;9.000;2023-12-28T15:02:35;5.70;99.90
3262;DHT22;1643;47.746;9.000;2023-12-28T15:05:01;5.70;99.90
3262;DHT22;1643;47.746;9.000;2023-12-28T15:07:26;5.70;99.90
3262;DHT22;1643;47.746;9.000;2023-12-28T15:09:52;5.70;99.90
3262;DHT22;1643;47.746;9.000;2023-12-28T15:12:22;5.70;99.90
3262;DHT22;1643;47.746;9.000;2023-12-28T15:14:48;5.70;99.90
3262;DHT22;1643;47.746;9.000;2023-12-28T15:17:14;5.80;99.90
3262;DHT22;1643;47.746;9.000;2023-12-28T15:19:40;5.80;99.90
3262;DHT22;1643;47.746;9.000;2023-12-28T15:22:06;5.80;99.90
3262;DHT22;1643;47.746;9.000;2023-12-28T15:24:32;5.80;99.90
3262;DHT22;1643;47.746;9.000;2023-12-28T15:26:58;5.80;99.90
3262;DHT22;1643;47.746;9.000;2023-12-28T15:29:23;5.80;99.90
3262;DHT22;1643;47.746;9.000;2023-12-28T15:31:49;5.80;99.90
3262;DHT22;1643;47.746;9.000;2023-12-28T15:34:15;5.80;99.90
3262;DHT22;1643;47.746;9.000;2023-12-28T15:36:41;5.80;99.90
3262;DHT22;1643;47.746;9.000;2023-12-28T15:39:07;5.80;99.90
3262;DHT22;1643;47.746;9.000;2023-12-28T15:41:33;5.80;99.90
3262;DHT22;1643;47.746;9.000;2023-12-28T15:43:59;5.80;99.90
3262;DHT22;1643;47.746;9.000;2023-12-28T15:46:25;5.80;99.90
3262;DHT22;1643;47.746;9.000;2023-12-28T15:48:50;5.80;99.90
3262;DHT22;1643;47.746;9.000;2023-12-28T15:51:16;5.80;99.90
3262;DHT22;1643;47.746;9.000;2023-12-28T15:53:41;5.80;99.90
3262;DHT22;1643;47.746;9.000;2023-12-28T15:56:07;5.90;99.90
3262;DHT22;1643;47.746;9.000;2023-12-28T15:58:33;5.80;99.90
3262;DHT22;1643;47.746;9.000;2023-12-28T16:00:58;5.80;99.90
3262;DHT22;1643;47.746;9.000;2023-12-28T16:03:24;5.80;99.90
3262;DHT22;1643;47.746;9.000;2023-12-28T16:05:50;5.80;99.90
3262;DHT22;1643;47.746;9.000;2023-12-28T16:08:15;5.80;99.90
3262;DHT22;1643;47.746;9.000;2023-12-28T16:10:41;5.80;99.90
3262;DHT22;1643;47.746;9.000;2023-12-28T16:13:07;5.80;99.90
3262;DHT22;1643;47.746;9.000;2023-12-28T16:15:32;5.80;99.90
3262;DHT22;1643;47.746;9.000;2023-12-28T16:18:03;5.80;99.90
3262;DHT22;1643;47.746;9.000;2023-12-28T16:20:29;5.90;99.90
3262;DHT22;1643;47.746;9.000;2023-12-28T16:22:55;5.80;99.90
3262;DHT22;1643;47.746;9.000;2023-12-28T16:25:21;5.90;99.90
3262;DHT22;1643;47.746;9.000;2023-12-28T16:27:47;6.00;99.90
3262;DHT22;1643;47.746;9.000;2023-12-28T16:30:12;5.90;99.90
3262;DHT22;1643;47.746;9.000;2023-12-28T16:32:39;5.90;99.90
3262;DHT22;1643;47.746;9.000;2023-12-28T16:35:05;5.90;99.90
3262;DHT22;1643;47.746;9.000;2023-12-28T16:37:31;5.90;99.90
3262;DHT22;1643;47.746;9.000;2023-12-28T16:39:56;6.00;99.90
3262;DHT22;1643;47.746;9.000;2023-12-28T16:42:22;5.90;99.90
3262;DHT22;1643;47.746;9.000;2023-12-28T16:44:48;6.00;99.90
3262;DHT22;1643;47.746;9.000;2023-12-28T16:47:14;6.00;99.90
3262;DHT22;1643;47.746;9.000;2023-12-28T16:49:39;6.00;99.90
3262;DHT22;1643;47.746;9.000;2023-12-28T16:52:05;6.00;99.90
3262;DHT22;1643;47.746;9.000;2023-12-28T16:54:32;6.10;99.90
3262;DHT22;1643;47.746;9.000;2023-12-28T16:56:57;6.00;99.90
3262;DHT22;1643;47.746;9.000;2023-12-28T16:59:23;6.00;99.90